Time;durP1;ratioP1;P1;durP2;ratioP2;P2;SDS_P1;SDS_P2;PMS_P1;PMS_P2;Temp;Humidity;BMP_temperature;BMP_pressure;BME280_temperature;BME280_humidity;BME280_pressure;Samples;Min_cycle;Max_cycle;Signal;HPM_P1;HPM_P2
2022/01/29 00:01:03;;;;;;;20.93;6.97;;;;;;;3.93;82.41;102153.88;6070975;28;20279;-72
2022/01/29 00:03:58;;;;;;;20.67;7.43;;;;;;;3.92;82.60;102143.44;6061897;28;20288;-71
2022/01/29 00:06:54;;;;;;;27.37;8.60;;;;;;;3.94;83.66;102141.59;6070381;28;20040;-72
2022/01/29 00:09:49;;;;;;;22.67;8.43;;;;;;;3.97;83.78;102133.56;6063412;28;20055;-72
2022/01/29 00:12:44;;;;;;;18.87;7.53;;;;;;;3.98;83.38;102116.91;6057718;28;20030;-72
2022/01/29 00:15:40;;;;;;;23.10;8.13;;;;;;;3.99;83.62;102114.25;6071512;28;20102;-72
2022/01/29 00:18:35;;;;;;;25.20;8.68;;;;;;;3.98;84.15;102111.66;6071825;28;20778;-73
2022/01/29 00:21:31;;;;;;;24.85;8.95;;;;;;;4.02;83.87;102097.50;6071404;28;20400;-72
2022/01/29 00:24:26;;;;;;;23.77;8.67;;;;;;;4.08;83.67;102091.94;6072797;28;20052;-72
2022/01/29 00:27:22;;;;;;;23.50;9.17;;;;;;;4.03;84.03;102089.53;6073507;28;20038;-72
2022/01/29 00:30:18;;;;;;;29.38;9.65;;;;;;;4.08;84.74;102098.06;6075632;28;20044;-70
2022/01/29 00:33:15;;;;;;;32.60;10.77;;;;;;;4.20;84.75;102092.25;6076497;28;20033;-72
2022/01/29 00:36:10;;;;;;;30.10;11.05;;;;;;;4.25;84.82;102092.03;6072962;28;20109;-72
2022/01/29 00:39:06;;;;;;;35.43;11.70;;;;;;;4.27;85.54;102087.53;6071326;28;20029;-71
2022/01/29 00:42:01;;;;;;;35.90;11.63;;;;;;;4.30;85.71;102090.03;6075491;28;20547;-74
2022/01/29 00:44:57;;;;;;;31.90;11.80;;;;;;;4.31;85.90;102069.88;6075563;28;20044;-71
2022/01/29 00:47:52;;;;;;;40.90;14.37;;;;;;;4.32;86.35;102075.03;6076845;28;20671;-73
2022/01/29 00:50:48;;;;;;;36.72;14.23;;;;;;;4.35;86.20;102064.41;6074928;28;20280;-71
2022/01/29 00:53:43;;;;;;;35.42;13.38;;;;;;;4.40;86.63;102070.31;6076205;28;20091;-72
2022/01/29 00:56:39;;;;;;;43.80;13.60;;;;;;;4.41;86.64;102064.13;6074040;28;20047;-72
2022/01/29 00:59:35;;;;;;;35.85;12.35;;;;;;;4.45;86.66;102060.44;6075934;28;20041;-71
2022/01/29 01:02:30;;;;;;;45.47;14.97;;;;;;;4.49;86.38;102054.09;6074900;28;20527;-72
2022/01/29 01:05:25;;;;;;;43.40;13.73;;;;;;;4.51;86.30;102046.16;6073789;28;20294;-72
2022/01/29 01:08:20;;;;;;;36.50;13.93;;;;;;;4.55;86.32;102031.94;6073733;28;20946;-72
2022/01/29 01:11:16;;;;;;;35.10;12.83;;;;;;;4.54;86.64;102031.06;6075231;28;20038;-72
2022/01/29 01:14:11;;;;;;;40.13;13.45;;;;;;;4.58;86.13;102016.88;6074889;28;20030;-72
2022/01/29 01:17:07;;;;;;;35.57;13.50;;;;;;;4.58;86.12;102019.50;6075117;28;20029;-72
2022/01/29 01:20:04;;;;;;;39.53;13.15;;;;;;;4.56;87.07;102013.50;6075048;28;20037;-72
2022/01/29 01:22:59;;;;;;;34.20;12.43;;;;;;;4.56;85.60;101997.72;6073862;28;20040;-72
2022/01/29 01:25:55;;;;;;;44.60;13.57;;;;;;;4.56;85.88;102005.63;6075252;28;20033;-71
2022/01/29 01:28:50;;;;;;;34.47;12.17;;;;;;;4.58;85.81;102009.00;6072910;28;20075;-71
2022/01/29 01:31:46;;;;;;;32.83;14.32;;;;;;;4.57;85.76;101998.56;6064975;28;20668;-71
2022/01/29 01:34:47;;;;;;;35.08;11.88;;;;;;;4.58;85.84;101998.50;6073841;28;20436;-71
2022/01/29 01:37:51;;;;;;;29.95;10.90;;;;;;;4.57;85.88;101988.91;6074745;28;20470;-72
2022/01/29 01:40:52;;;;;;;36.72;12.07;;;;;;;4.60;86.30;101969.50;6073743;28;20041;-72
2022/01/29 01:43:47;;;;;;;31.63;12.05;;;;;;;4.62;86.47;101973.75;6075194;28;20034;-72
2022/01/29 01:46:42;;;;;;;36.30;11.67;;;;;;;4.60;85.56;101967.75;6074524;28;20037;-72
2022/01/29 01:49:38;;;;;;;34.40;12.50;;;;;;;4.63;86.22;101949.19;6074791;28;20299;-71
2022/01/29 01:52:33;;;;;;;35.28;12.23;;;;;;;4.63;85.99;101941.31;6073481;28;20079;-73
2022/01/29 01:55:29;;;;;;;34.20;12.50;;;;;;;4.62;86.08;101936.16;6074344;28;20087;-72
2022/01/29 01:58:25;;;;;;;37.55;12.35;;;;;;;4.62;86.36;101931.72;6075023;28;20029;-72
2022/01/29 02:01:20;;;;;;;37.70;13.70;;;;;;;4.62;87.11;101925.66;6073765;28;20036;-73
2022/01/29 02:04:15;;;;;;;32.03;11.80;;;;;;;4.64;87.07;101915.91;6062263;28;20482;-73
2022/01/29 02:07:11;;;;;;;36.03;12.90;;;;;;;4.67;86.17;101910.50;6073452;28;20108;-71
2022/01/29 02:10:09;;;;;;;32.40;12.60;;;;;;;4.70;87.00;101908.53;6073633;28;20029;-72
2022/01/29 02:13:05;;;;;;;41.92;13.27;;;;;;;4.71;86.60;101889.25;6074442;28;20032;-72
2022/01/29 02:16:02;;;;;;;35.30;12.70;;;;;;;4.74;85.92;101883.81;6074115;28;20037;-71
2022/01/29 02:18:57;;;;;;;38.13;13.38;;;;;;;4.78;85.90;101879.28;6073357;28;20116;-72
2022/01/29 02:21:54;;;;;;;38.67;13.67;;;;;;;4.82;85.74;101871.13;6073581;28;20037;-72
2022/01/29 02:24:49;;;;;;;35.35;13.27;;;;;;;4.93;85.26;101874.97;6073488;28;20493;-72
2022/01/29 02:27:44;;;;;;;34.17;11.57;;;;;;;4.91;85.58;101863.69;6070944;28;20044;-72
2022/01/29 02:30:46;;;;;;;33.93;12.90;;;;;;;4.92;86.13;101858.34;6064047;28;20128;-72
2022/01/29 02:33:41;;;;;;;36.13;12.02;;;;;;;4.93;86.66;101849.53;6074069;28;20053;-73
2022/01/29 02:36:36;;;;;;;29.73;11.70;;;;;;;4.95;85.87;101849.44;6073379;28;20499;-73
2022/01/29 02:39:31;;;;;;;38.47;12.70;;;;;;;4.94;86.23;101845.13;6069868;28;20287;-73
2022/01/29 02:42:27;;;;;;;42.20;12.27;;;;;;;4.97;86.32;101831.84;6063042;28;20030;-73
2022/01/29 02:45:22;;;;;;;37.67;11.83;;;;;;;4.99;86.24;101824.72;6068969;28;20116;-73
2022/01/29 02:48:18;;;;;;;37.63;13.40;;;;;;;5.00;86.30;101821.16;6073828;28;20037;-73
2022/01/29 02:51:13;;;;;;;33.35;11.82;;;;;;;5.04;86.28;101817.41;6072213;28;20272;-73
2022/01/29 02:54:08;;;;;;;33.70;11.70;;;;;;;5.03;86.26;101808.69;6073625;28;20034;-73
2022/01/29 02:57:04;;;;;;;33.80;13.10;;;;;;;5.05;86.03;101798.94;6071594;28;20036;-73
2022/01/29 03:00:00;;;;;;;44.83;14.18;;;;;;;4.97;87.35;101788.00;6073092;28;20065;-73
2022/01/29 03:02:55;;;;;;;36.13;14.02;;;;;;;4.89;87.69;101789.34;6070812;28;20041;-73
2022/01/29 03:05:51;;;;;;;38.10;13.70;;;;;;;4.77;88.78;101783.84;6062685;28;20370;-74
2022/01/29 03:08:47;;;;;;;43.50;13.93;;;;;;;4.72;88.97;101780.59;6070556;28;20149;-74
2022/01/29 03:11:42;;;;;;;38.37;13.20;;;;;;;4.70;89.75;101771.94;6063684;28;20025;-74
2022/01/29 03:14:37;;;;;;;36.20;13.27;;;;;;;4.67;90.56;101755.50;6067821;28;20098;-72
2022/01/29 03:17:33;;;;;;;42.17;13.63;;;;;;;4.65;90.46;101754.72;6072549;28;20120;-72
2022/01/29 03:20:30;;;;;;;51.60;15.57;;;;;;;4.59;90.54;101745.41;6062523;28;20386;-73
2022/01/29 03:23:25;;;;;;;39.85;13.35;;;;;;;4.58;91.12;101738.47;6072427;28;20484;-73
2022/01/29 03:26:21;;;;;;;41.40;14.50;;;;;;;4.56;90.95;101737.72;6073026;28;20052;-73
2022/01/29 03:29:17;;;;;;;39.75;13.88;;;;;;;4.59;91.51;101742.75;6071683;28;20042;-73
2022/01/29 03:32:13;;;;;;;41.67;15.00;;;;;;;4.57;91.70;101734.13;6072353;28;20052;-73
2022/01/29 03:35:09;;;;;;;42.85;15.48;;;;;;;4.50;91.51;101717.03;6071566;28;20033;-72
2022/01/29 03:38:05;;;;;;;35.25;12.90;;;;;;;4.47;91.74;101725.06;6067154;28;20088;-71
2022/01/29 03:41:01;;;;;;;35.28;13.85;;;;;;;4.44;92.44;101725.22;6070776;28;20461;-72
2022/01/29 03:44:01;;;;;;;44.47;15.50;;;;;;;4.43;92.48;101723.50;6072620;28;20042;-71
2022/01/29 03:46:57;;;;;;;44.75;14.93;;;;;;;4.46;92.87;101728.59;6072183;28;20033;-71
2022/01/29 03:49:52;;;;;;;37.63;13.90;;;;;;;4.47;92.50;101730.31;6072118;28;20052;-71
2022/01/29 03:52:47;;;;;;;41.30;14.17;;;;;;;4.47;92.91;101716.31;6071389;28;20128;-71
2022/01/29 03:55:43;;;;;;;49.10;14.93;;;;;;;4.45;93.11;101719.06;6061623;28;20030;-71
2022/01/29 03:58:38;;;;;;;42.43;14.87;;;;;;;4.43;92.49;101704.31;6073712;28;20048;-70
2022/01/29 04:01:33;;;;;;;47.10;15.00;;;;;;;4.40;92.99;101694.81;6071999;28;20473;-71
2022/01/29 04:04:28;;;;;;;37.73;13.53;;;;;;;4.40;93.13;101702.69;6064432;28;20049;-70
2022/01/29 04:07:24;;;;;;;36.93;13.10;;;;;;;4.39;93.38;101687.88;6077155;28;20037;-69
2022/01/29 04:10:20;;;;;;;40.20;14.23;;;;;;;4.40;93.43;101676.44;6073430;28;20048;-70
2022/01/29 04:13:20;;;;;;;37.80;14.70;;;;;;;4.40;93.81;101662.47;6076271;28;20053;-71
2022/01/29 04:16:17;;;;;;;38.72;14.23;;;;;;;4.37;93.06;101663.47;6077192;28;20468;-70
2022/01/29 04:19:12;;;;;;;35.53;13.65;;;;;;;4.36;94.34;101656.53;6076537;28;20112;-70
2022/01/29 04:22:07;;;;;;;37.97;14.15;;;;;;;4.37;93.83;101641.63;6076653;28;20059;-71
2022/01/29 04:25:03;;;;;;;34.47;13.97;;;;;;;4.39;94.66;101648.47;6069918;28;20037;-71
2022/01/29 04:27:59;;;;;;;35.53;13.93;;;;;;;4.40;93.66;101634.44;6074519;28;20106;-70
2022/01/29 04:31:00;;;;;;;36.17;13.68;;;;;;;4.38;94.26;101631.03;6075118;28;20181;-71
2022/01/29 04:33:55;;;;;;;30.77;12.00;;;;;;;4.39;94.00;101632.72;6077406;28;20040;-71
2022/01/29 04:36:51;;;;;;;36.07;13.23;;;;;;;4.36;94.74;101621.53;6073618;28;20033;-71
2022/01/29 04:39:46;;;;;;;34.67;12.68;;;;;;;4.38;93.98;101607.38;6077332;28;20071;-71
2022/01/29 04:42:41;;;;;;;31.60;12.53;;;;;;;4.38;94.20;101591.63;6076862;28;20080;-71
2022/01/29 04:45:37;;;;;;;36.40;12.80;;;;;;;4.39;95.28;101588.09;6077023;28;20044;-71
2022/01/29 04:48:32;;;;;;;39.88;13.23;;;;;;;4.37;95.20;101574.22;6072238;28;20497;-72
2022/01/29 04:51:27;;;;;;;32.97;11.67;;;;;;;4.38;94.26;101572.41;6052788;28;20045;-71
2022/01/29 04:54:22;;;;;;;30.93;12.77;;;;;;;4.41;94.88;101570.47;6053172;28;20386;-71
2022/01/29 04:57:18;;;;;;;28.80;13.10;;;;;;;4.42;95.13;101566.91;6068805;28;20046;-71
2022/01/29 05:00:21;;;;;;;33.33;12.80;;;;;;;4.44;93.94;101564.19;6061154;28;20021;-70
2022/01/29 05:03:16;;;;;;;39.28;12.55;;;;;;;4.45;95.04;101566.75;6076742;28;20083;-70
2022/01/29 05:06:12;;;;;;;35.27;12.23;;;;;;;4.49;94.98;101547.25;6076901;28;20033;-70
2022/01/29 05:09:09;;;;;;;30.17;11.73;;;;;;;4.55;94.79;101546.91;6075183;28;20030;-71
2022/01/29 05:12:05;;;;;;;29.60;12.00;;;;;;;4.55;94.41;101536.41;6075140;28;20045;-74
2022/01/29 05:27:37;;;;;;;27.95;11.18;;;;;;;4.74;93.96;101521.28;6070934;28;20037;-72
2022/01/29 05:30:32;;;;;;;30.03;11.67;;;;;;;4.78;94.06;101511.44;6062529;28;20815;-72
2022/01/29 05:33:27;;;;;;;27.57;10.23;;;;;;;4.82;94.35;101511.16;6074395;28;20037;-72
2022/01/29 05:36:23;;;;;;;29.20;12.23;;;;;;;4.87;93.81;101510.03;6075488;28;20755;-72
2022/01/29 05:39:18;;;;;;;29.83;11.52;;;;;;;4.86;93.82;101516.25;6070764;28;20477;-73
2022/01/29 05:42:13;;;;;;;29.53;11.67;;;;;;;4.91;94.27;101511.56;6073411;28;20029;-73
2022/01/29 05:45:09;;;;;;;31.27;12.07;;;;;;;4.91;94.17;101516.81;6074711;28;20041;-73
2022/01/29 05:48:04;;;;;;;33.10;12.05;;;;;;;4.91;93.71;101514.19;6074430;28;20041;-73
2022/01/29 05:51:00;;;;;;;28.65;12.27;;;;;;;4.91;93.74;101496.66;6071366;28;20034;-72
2022/01/29 05:53:59;;;;;;;27.73;11.63;;;;;;;4.96;93.27;101509.50;6074577;28;20038;-72
2022/01/29 05:56:54;;;;;;;26.42;10.88;;;;;;;4.99;94.49;101501.44;6072810;28;20026;-72
2022/01/29 05:59:49;;;;;;;27.53;10.47;;;;;;;5.03;94.09;101500.34;6073915;28;20493;-72
2022/01/29 06:02:45;;;;;;;28.27;11.77;;;;;;;5.02;94.03;101506.53;6072532;28;20412;-73
2022/01/29 06:05:40;;;;;;;26.80;11.00;;;;;;;5.02;94.16;101496.00;6061378;28;20041;-73
2022/01/29 06:08:35;;;;;;;26.83;12.40;;;;;;;5.01;93.87;101494.31;6072982;28;20036;-74
2022/01/29 06:11:32;;;;;;;29.80;11.67;;;;;;;5.06;94.26;101502.75;6073745;28;20041;-73
2022/01/29 06:14:27;;;;;;;25.67;11.40;;;;;;;5.06;94.80;101489.63;6074543;28;20052;-74
2022/01/29 06:17:22;;;;;;;28.03;11.93;;;;;;;5.10;93.93;101491.13;6073995;28;20029;-74
2022/01/29 06:20:18;;;;;;;27.70;12.10;;;;;;;5.05;93.70;101493.19;6073633;28;20044;-73
2022/01/29 06:23:14;;;;;;;27.27;11.03;;;;;;;5.07;94.14;101494.81;6072447;28;20826;-73
2022/01/29 06:26:12;;;;;;;28.08;11.65;;;;;;;5.09;93.54;101478.91;6074082;28;20275;-74
2022/01/29 06:29:07;;;;;;;28.00;11.48;;;;;;;5.11;93.85;101469.19;6069212;28;20030;-74
2022/01/29 06:32:02;;;;;;;26.53;10.43;;;;;;;5.10;93.96;101460.44;6065430;28;20059;-74
2022/01/29 06:34:58;;;;;;;28.08;11.05;;;;;;;5.12;94.29;101448.03;6072742;28;20092;-73
2022/01/29 06:37:53;;;;;;;31.70;11.07;;;;;;;5.09;94.00;101452.63;6069661;28;20033;-73
2022/01/29 06:40:50;;;;;;;28.83;10.70;;;;;;;5.12;94.06;101444.56;6070361;28;20060;-72
2022/01/29 06:43:45;;;;;;;25.80;10.75;;;;;;;5.18;94.09;101444.19;6074874;28;20167;-72
2022/01/29 06:46:40;;;;;;;24.13;9.63;;;;;;;5.19;94.03;101448.53;6073715;28;20037;-72
2022/01/29 06:49:35;;;;;;;28.40;10.07;;;;;;;5.23;93.70;101450.03;6070101;28;20025;-72
2022/01/29 06:52:31;;;;;;;24.17;10.90;;;;;;;5.25;93.58;101448.13;6072267;28;20164;-72
2022/01/29 06:55:26;;;;;;;25.47;10.17;;;;;;;5.27;93.27;101448.91;6072650;28;20536;-73
2022/01/29 06:58:21;;;;;;;26.00;11.20;;;;;;;5.32;93.37;101444.22;6078658;28;20087;-73
2022/01/29 07:01:17;;;;;;;22.60;9.83;;;;;;;5.29;93.04;101434.72;6073377;28;20315;-72
2022/01/29 07:04:12;;;;;;;21.60;9.23;;;;;;;5.30;93.03;101438.19;6072130;28;20049;-72
2022/01/29 07:07:07;;;;;;;27.67;11.33;;;;;;;5.31;93.23;101442.50;6070701;28;20022;-74
2022/01/29 07:10:04;;;;;;;25.00;9.90;;;;;;;5.38;93.90;101433.31;6068860;28;20038;-73
2022/01/29 07:13:00;;;;;;;23.92;9.70;;;;;;;5.42;93.33;101429.53;6068131;28;20037;-73
2022/01/29 07:15:55;;;;;;;24.23;9.80;;;;;;;5.46;93.40;101414.44;6073191;28;20045;-73
2022/01/29 07:18:50;;;;;;;28.97;10.13;;;;;;;5.45;92.92;101418.84;6070051;28;20113;-72
2022/01/29 07:21:45;;;;;;;27.10;11.73;;;;;;;5.49;93.13;101412.41;6071972;28;20524;-73
2022/01/29 07:24:41;;;;;;;27.83;11.50;;;;;;;5.50;92.47;101413.28;6064199;28;20125;-73
2022/01/29 07:27:36;;;;;;;26.23;10.37;;;;;;;5.51;93.10;101407.09;6058358;28;20036;-73
2022/01/29 07:30:31;;;;;;;23.63;10.03;;;;;;;5.51;92.81;101407.09;6070910;28;20021;-73
2022/01/29 07:33:27;;;;;;;28.00;11.97;;;;;;;5.50;93.02;101395.72;6071298;28;20033;-72
2022/01/29 07:36:23;;;;;;;27.50;10.68;;;;;;;5.52;92.87;101393.00;6060730;28;20079;-73
2022/01/29 07:39:19;;;;;;;27.33;11.17;;;;;;;5.59;92.50;101400.41;6072504;28;20037;-73
2022/01/29 07:42:14;;;;;;;24.67;10.80;;;;;;;5.60;92.44;101399.44;6065756;28;20277;-73
2022/01/29 07:45:09;;;;;;;22.63;9.17;;;;;;;5.63;92.88;101393.97;6065751;28;20044;-73
2022/01/29 07:48:05;;;;;;;27.83;10.13;;;;;;;5.69;92.87;101390.13;6071369;28;20053;-73
2022/01/29 07:51:00;;;;;;;25.10;10.95;;;;;;;5.67;93.05;101377.09;6071119;28;20048;-74
2022/01/29 07:53:55;;;;;;;27.07;11.83;;;;;;;5.69;92.31;101390.13;6072355;28;20492;-74
2022/01/29 07:56:51;;;;;;;25.30;10.90;;;;;;;5.69;93.17;101380.44;6071948;28;20088;-74
2022/01/29 07:59:46;;;;;;;30.60;11.10;;;;;;;5.73;92.90;101389.84;6071901;28;20496;-74
2022/01/29 08:02:41;;;;;;;26.77;11.07;;;;;;;5.76;92.01;101384.34;6059617;28;20034;-73
2022/01/29 08:05:37;;;;;;;24.83;10.93;;;;;;;5.75;92.57;101380.06;6071933;28;20036;-74
2022/01/29 08:08:32;;;;;;;20.57;8.53;;;;;;;5.79;91.74;101376.28;6072038;28;20034;-74
2022/01/29 08:11:27;;;;;;;25.53;11.17;;;;;;;5.82;91.97;101370.81;6072050;28;20099;-75
2022/01/29 08:14:22;;;;;;;26.47;11.70;;;;;;;5.85;92.25;101381.19;6071113;28;20426;-73
2022/01/29 08:17:18;;;;;;;24.50;11.73;;;;;;;5.87;91.94;101376.66;6073335;28;20288;-74
2022/01/29 08:20:13;;;;;;;28.50;11.23;;;;;;;5.91;92.46;101375.53;6072413;28;20634;-73
2022/01/29 08:23:12;;;;;;;23.80;10.07;;;;;;;5.93;91.80;101372.78;6072926;28;20080;-74
2022/01/29 08:26:08;;;;;;;23.92;10.65;;;;;;;5.99;91.78;101367.97;6073066;28;20287;-72
2022/01/29 08:29:04;;;;;;;25.02;9.85;;;;;;;5.99;91.81;101354.81;6060274;28;20099;-72
2022/01/29 08:31:59;;;;;;;23.30;10.57;;;;;;;6.07;91.13;101361.34;6069129;28;20041;-71
2022/01/29 08:34:54;;;;;;;20.73;10.53;;;;;;;6.08;91.71;101357.78;6071282;28;20053;-72
2022/01/29 08:37:50;;;;;;;24.90;10.60;;;;;;;6.11;91.42;101360.22;6072040;28;20036;-73
2022/01/29 08:40:45;;;;;;;22.97;9.53;;;;;;;6.09;90.95;101357.66;6077118;28;20036;-72
2022/01/29 08:43:40;;;;;;;24.37;10.67;;;;;;;6.18;91.69;101358.84;6074141;28;20441;-73
2022/01/29 08:46:35;;;;;;;23.73;9.63;;;;;;;6.20;91.42;101351.69;6077071;28;20276;-72
2022/01/29 08:49:31;;;;;;;22.00;8.70;;;;;;;6.24;90.70;101353.19;6077440;28;20044;-72
2022/01/29 08:52:27;;;;;;;25.80;9.33;;;;;;;6.23;91.59;101352.31;6076491;28;20492;-73
2022/01/29 08:55:22;;;;;;;24.58;8.85;;;;;;;6.29;91.46;101353.72;6076826;28;20075;-73
2022/01/29 08:58:17;;;;;;;19.87;9.23;;;;;;;6.30;91.03;101334.34;6070684;28;20040;-73
2022/01/29 09:01:13;;;;;;;20.07;9.43;;;;;;;6.31;91.20;101342.13;6075972;28;20674;-73
2022/01/29 09:04:08;;;;;;;21.48;10.57;;;;;;;6.34;91.27;101339.28;6075774;28;20717;-72
2022/01/29 09:07:04;;;;;;;22.60;9.13;;;;;;;6.34;90.61;101330.53;6075959;28;20060;-73
2022/01/29 09:09:59;;;;;;;23.93;9.90;;;;;;;6.38;90.72;101318.84;6076798;28;20037;-73
2022/01/29 09:12:55;;;;;;;22.92;8.95;;;;;;;6.39;90.73;101309.97;6076319;28;20041;-73
2022/01/29 09:15:50;;;;;;;23.40;10.23;;;;;;;6.42;91.16;101294.81;6076490;28;20036;-72
2022/01/29 09:18:45;;;;;;;22.60;9.43;;;;;;;6.48;90.96;101297.03;6076813;28;20058;-73
2022/01/29 09:21:41;;;;;;;22.33;9.30;;;;;;;6.53;90.43;101294.94;6073581;28;20035;-73
2022/01/29 09:24:36;;;;;;;22.77;9.90;;;;;;;6.61;91.07;101291.75;6076415;28;20323;-73
2022/01/29 09:27:32;;;;;;;26.33;10.40;;;;;;;6.69;90.55;101281.53;6076038;28;20030;-73
2022/01/29 09:30:27;;;;;;;20.13;8.40;;;;;;;6.72;90.37;101283.94;6075417;28;20064;-73
2022/01/29 09:33:22;;;;;;;27.87;9.47;;;;;;;6.78;89.86;101283.53;6076239;28;20627;-73
2022/01/29 09:36:21;;;;;;;21.80;8.30;;;;;;;6.80;90.53;101275.50;6075694;28;20401;-72
2022/01/29 09:39:16;;;;;;;22.77;9.38;;;;;;;6.83;90.11;101281.41;6076073;28;20116;-73
2022/01/29 09:42:13;;;;;;;20.25;8.65;;;;;;;6.87;90.08;101274.13;6075199;28;20511;-73
2022/01/29 09:45:09;;;;;;;21.67;8.30;;;;;;;6.93;90.08;101277.16;6075984;28;20037;-73
2022/01/29 09:48:05;;;;;;;26.17;9.65;;;;;;;6.93;89.67;101268.44;6076095;28;20483;-73
2022/01/29 09:51:00;;;;;;;21.65;8.98;;;;;;;6.95;89.82;101263.88;6075098;28;20503;-73
2022/01/29 09:53:55;;;;;;;25.43;9.40;;;;;;;6.95;89.74;101270.00;6075921;28;20033;-73
2022/01/29 09:56:51;;;;;;;23.23;9.43;;;;;;;6.91;89.94;101257.97;6066061;28;20053;-73
2022/01/29 09:59:48;;;;;;;23.40;9.43;;;;;;;6.95;90.04;101240.16;6068980;28;20116;-72
2022/01/29 10:02:43;;;;;;;35.10;9.77;;;;;;;6.92;90.87;101264.94;6074809;28;20029;-73
2022/01/29 10:05:41;;;;;;;28.20;11.13;;;;;;;6.93;90.69;101256.06;6074769;28;20029;-72
2022/01/29 10:08:43;;;;;;;25.90;9.90;;;;;;;6.91;91.35;101259.78;6063184;28;20057;-72
2022/01/29 10:11:40;;;;;;;22.08;8.60;;;;;;;6.97;91.20;101246.16;6074580;28;20127;-72
2022/01/29 10:14:46;;;;;;;24.48;9.55;;;;;;;6.97;90.98;101236.47;6074696;28;20048;-72
2022/01/29 10:17:49;;;;;;;21.48;9.25;;;;;;;7.02;90.98;101239.59;6075095;28;20035;-72
2022/01/29 10:20:44;;;;;;;23.90;8.52;;;;;;;7.01;91.36;101224.72;6061214;28;20579;-73
2022/01/29 10:23:41;;;;;;;21.47;9.20;;;;;;;7.05;90.35;101234.13;6068721;28;20033;-72
2022/01/29 10:26:39;;;;;;;22.13;8.80;;;;;;;7.01;90.89;101231.81;6075295;28;20381;-73
2022/01/29 10:29:35;;;;;;;24.00;8.93;;;;;;;7.02;90.62;101225.56;6074237;28;20037;-73
2022/01/29 10:32:33;;;;;;;19.77;8.63;;;;;;;7.03;90.37;101217.56;6072401;28;20029;-72
2022/01/29 10:35:42;;;;;;;18.85;8.00;;;;;;;7.09;90.51;101224.19;6070011;28;20038;-72
2022/01/29 10:38:40;;;;;;;20.83;8.02;;;;;;;7.10;90.63;101210.88;6071727;28;20041;-73
2022/01/29 10:41:35;;;;;;;22.20;8.65;;;;;;;7.15;90.62;101215.81;6068605;28;20037;-73
2022/01/29 10:44:43;;;;;;;16.40;6.47;;;;;;;7.26;90.86;101209.75;6073725;28;20033;-73
2022/01/29 10:47:57;;;;;;;15.63;7.03;;;;;;;7.33;90.14;101205.72;6061566;28;20268;-72
2022/01/29 10:51:12;;;;;;;18.05;7.90;;;;;;;7.29;90.61;101202.47;6073781;28;20366;-72
2022/01/29 10:54:18;;;;;;;15.75;6.28;;;;;;;7.28;89.92;101192.88;6074685;28;20544;-73
2022/01/29 10:57:15;;;;;;;17.42;6.70;;;;;;;7.30;90.62;101195.41;6073465;28;20030;-73
2022/01/29 11:00:21;;;;;;;14.60;6.72;;;;;;;7.29;90.37;101181.34;6067414;28;20033;-72
2022/01/29 11:03:16;;;;;;;14.55;5.75;;;;;;;7.27;90.47;101180.63;6073765;28;20048;-73
2022/01/29 11:06:13;;;;;;;13.67;6.23;;;;;;;7.27;90.16;101164.81;6074356;28;20029;-73
2022/01/29 11:09:09;;;;;;;12.82;5.68;;;;;;;7.35;90.15;101157.16;6073307;28;20029;-72
2022/01/29 11:12:04;;;;;;;11.20;4.68;;;;;;;7.35;90.40;101156.31;6070560;28;20037;-72
2022/01/29 11:15:02;;;;;;;11.63;5.00;;;;;;;7.34;90.73;101154.66;6075207;28;20439;-73
2022/01/29 11:17:57;;;;;;;10.10;4.80;;;;;;;7.41;90.53;101158.50;6065455;28;20084;-72
2022/01/29 11:20:54;;;;;;;10.50;4.43;;;;;;;7.39;90.21;101141.97;6069723;28;20463;-72
2022/01/29 11:23:50;;;;;;;13.75;4.80;;;;;;;7.40;90.46;101139.19;6073600;28;20075;-72
2022/01/29 11:26:45;;;;;;;10.88;4.47;;;;;;;7.37;90.49;101138.56;6072618;28;20029;-73
2022/01/29 11:29:55;;;;;;;10.93;4.53;;;;;;;7.40;90.39;101135.72;6073807;28;20405;-72
2022/01/29 11:32:53;;;;;;;12.25;4.72;;;;;;;7.36;90.27;101121.94;6072550;28;20394;-72
2022/01/29 11:35:52;;;;;;;8.75;4.22;;;;;;;7.43;90.91;101112.59;6073528;28;20037;-72
2022/01/29 11:38:47;;;;;;;9.75;4.10;;;;;;;7.47;90.17;101086.81;6073025;28;20508;-72
2022/01/29 11:41:43;;;;;;;11.50;4.50;;;;;;;7.57;90.38;101074.59;6071158;28;20038;-72
2022/01/29 11:44:42;;;;;;;9.90;4.47;;;;;;;7.60;89.55;101062.00;6073803;28;20025;-73
2022/01/29 11:47:38;;;;;;;8.30;3.85;;;;;;;7.65;90.14;101054.56;6072893;28;20041;-73
2022/01/29 11:50:33;;;;;;;9.85;3.90;;;;;;;7.75;89.49;101037.06;6072720;28;20057;-72
2022/01/29 11:53:48;;;;;;;9.75;4.45;;;;;;;7.82;89.14;101032.16;6073498;28;20477;-72
2022/01/29 11:56:44;;;;;;;9.73;3.33;;;;;;;7.86;89.15;101033.56;6067458;28;20045;-73
2022/01/29 11:59:39;;;;;;;4.55;2.38;;;;;;;7.99;88.56;101025.53;6068983;28;20462;-73
2022/01/29 12:02:36;;;;;;;7.35;3.20;;;;;;;7.96;88.18;101012.56;6058294;28;20029;-73
2022/01/29 12:09:20;;;;;;;6.45;2.92;;;;;;;7.97;88.94;101001.03;6072973;28;20065;-73
2022/01/29 12:12:16;;;;;;;7.63;3.50;;;;;;;8.02;87.89;100991.78;6071946;28;20088;-74
2022/01/29 12:15:11;;;;;;;6.45;2.80;;;;;;;8.06;88.06;100987.09;6072861;28;20064;-73
2022/01/29 12:18:28;;;;;;;8.60;3.60;;;;;;;8.01;88.44;100973.44;6072631;28;20041;-74
2022/01/29 12:21:23;;;;;;;6.07;2.83;;;;;;;8.07;88.07;100971.13;6076643;28;20033;-73
2022/01/29 12:24:19;;;;;;;6.07;3.10;;;;;;;8.08;88.27;100977.25;6077703;28;20044;-73
2022/01/29 12:27:15;;;;;;;6.80;2.97;;;;;;;8.14;88.40;100961.75;6075447;28;20095;-73
2022/01/29 12:30:13;;;;;;;8.82;3.20;;;;;;;8.18;88.39;100954.44;6067502;28;20025;-74
2022/01/29 12:33:15;;;;;;;8.52;3.45;;;;;;;8.17;88.43;100971.22;6077448;28;20496;-74
2022/01/29 12:36:10;;;;;;;7.20;3.30;;;;;;;8.21;87.91;100939.16;6077142;28;20045;-72
2022/01/29 12:39:08;;;;;;;8.53;2.90;;;;;;;8.21;88.12;100960.28;6075480;28;20034;-72
2022/01/29 12:45:07;;;;;;;5.80;2.38;;;;;;;8.23;88.04;100950.44;6064293;28;20048;-72
2022/01/29 12:48:08;;;;;;;6.18;2.55;;;;;;;8.28;88.32;100934.25;6076911;28;20037;-72
2022/01/29 12:51:09;;;;;;;5.30;2.38;;;;;;;8.27;88.18;100936.03;6076739;28;20156;-72
2022/01/29 12:54:07;;;;;;;6.32;2.88;;;;;;;8.23;89.12;100941.69;6073875;28;20048;-71
2022/01/29 12:57:04;;;;;;;5.10;2.42;;;;;;;8.21;88.95;100925.94;6075690;28;20043;-72
2022/01/29 13:00:07;;;;;;;6.07;2.88;;;;;;;8.11;90.08;100929.47;6074405;28;20025;-72
2022/01/29 13:03:07;;;;;;;6.55;2.97;;;;;;;8.02;90.55;100922.28;6074783;28;20030;-72
2022/01/29 13:06:08;;;;;;;6.53;2.90;;;;;;;8.05;90.81;100920.22;6074896;28;20037;-73
2022/01/29 13:09:15;;;;;;;5.60;2.25;;;;;;;8.09;90.48;100911.13;6073816;28;20095;-72
2022/01/29 13:12:12;;;;;;;6.63;2.80;;;;;;;8.22;90.17;100916.22;6071336;28;20044;-72
2022/01/29 13:15:10;;;;;;;6.97;3.17;;;;;;;8.26;89.57;100896.53;6076426;28;20029;-71
2022/01/29 13:18:06;;;;;;;5.40;2.63;;;;;;;8.37;88.80;100878.81;6065315;28;20112;-72
2022/01/29 13:21:02;;;;;;;5.57;2.55;;;;;;;8.46;88.52;100877.22;6074737;28;20473;-72
2022/01/29 13:23:57;;;;;;;5.10;2.13;;;;;;;8.46;88.25;100871.94;6076258;28;20087;-72
2022/01/29 13:27:14;;;;;;;6.10;2.77;;;;;;;8.48;88.04;100859.44;6067238;28;20033;-72
2022/01/29 13:30:18;;;;;;;8.55;2.97;;;;;;;8.52;88.03;100839.72;6060888;28;20627;-72
2022/01/29 13:33:16;;;;;;;5.05;2.75;;;;;;;8.53;87.71;100814.13;6075796;28;20061;-71
2022/01/29 13:36:12;;;;;;;5.20;2.63;;;;;;;8.62;87.12;100819.47;6053448;28;20057;-72
2022/01/29 13:39:08;;;;;;;6.03;2.60;;;;;;;8.64;86.49;100819.34;6068857;28;20061;-72
2022/01/29 13:42:15;;;;;;;5.40;2.80;;;;;;;8.70;86.46;100832.00;6075272;28;20030;-72
2022/01/29 13:45:13;;;;;;;6.72;3.45;;;;;;;8.71;86.12;100828.41;6072341;28;20033;-71
2022/01/29 13:48:10;;;;;;;6.57;3.20;;;;;;;8.77;85.77;100830.53;6072348;28;20037;-71
2022/01/29 13:51:05;;;;;;;8.75;3.40;;;;;;;8.82;85.21;100815.13;6063485;28;20108;-71
2022/01/29 13:54:03;;;;;;;9.30;3.10;;;;;;;8.90;85.08;100810.00;6074938;28;20052;-71
2022/01/29 13:57:05;;;;;;;10.93;3.13;;;;;;;8.87;84.79;100789.94;6073847;28;20021;-72